Airfield :







YOU CAN JOIN US ON...

 
LOGIN :

Register | Disclaimer

   EN    FR    IT 

 









Legend :    VFR   Marginal VFR   IFR   Intensive IFR   Very Intensive IFR
Visi :
Ceiling :
>= 8 km
>= 3000ft
5 to 8 km
1000 to 3000 ft
1500m to 5 km
500 to 1000 ft
800 to 1500m
200 to 500 ft
< 800m
< 200 ft
Symbols :   Thunderstorms  Fog  Heavy snow  Heavy precipitations  Wind > 20 kt






- Airport Elevation : 167 ft
- IATA code : YAW


CYAW - CFB Shearwater

CURRENT METAR :
  • 221600Z 12011G16KT 15SM FEW015 BKN250 14/05 A3024 RMK CU1CI6 DA-192FT CONTRAILS SLP242

EXPIRED METARs :
  • 221500Z 06012KT 15SM FEW010 BKN250 14/05 A3025 RMK CU1CI5 DA-265FT SLP245
  • 221400Z 04009KT 15SM FEW010 SCT250 12/05 A3025 RMK CF1CI3 DA-464FT CUFRA TR SLP247

TAF TAF CYAW
Valid from the 22 at 12:00 until the 23 at 00:00 UTC


221130Z 2212/2224 03008KT P6SM FEW010 FEW220
FM221400 06008KT P6SM FEW250
FM222100 10012KT P6SM BKN200 RMK NXT FCST BY 221800Z



MET'MAP, your aeronautical weather chart ! - Copyright ORBIFLY December 2007 - Disclaimer

ORBIFLY MET'MAP TEAM :

Programming & Development : Alexandra Zaïnal
Concept & Development : Baudouin d'Aumeries
Co-Development & Prog : Marc-Olivier Méhu
Technical & hardware support : Manuel Goepfert

Contact : metmap@orbifly.com




SOURCES & CREDITS :

   NOAA